Time;durP1;ratioP1;P1;durP2;ratioP2;P2;SDS_P1;SDS_P2;PMS_P1;PMS_P2;Temp;Humidity;BMP_temperature;BMP_pressure;BME280_temperature;BME280_humidity;BME280_pressure;Samples;Min_cycle;Max_cycle;Signal;HPM_P1;HPM_P2
2022/05/22 00:02:20;;;;;;;32.88;6.70;;;;;;;19.58;44.75;101167.16;4951440;28;20035;-57
2022/05/22 00:04:47;;;;;;;19.60;5.60;;;;;;;19.61;44.47;101182.97;4935346;29;20027;-57
2022/05/22 00:07:13;;;;;;;22.98;6.63;;;;;;;19.61;44.90;101182.97;4935479;29;20093;-57
2022/05/22 00:09:39;;;;;;;25.85;6.80;;;;;;;19.63;45.53;101185.41;4954731;28;20027;-57
2022/05/22 00:12:08;;;;;;;31.92;7.88;;;;;;;18.67;46.95;101186.78;4952541;28;20114;-57
2022/05/22 00:14:36;;;;;;;34.80;8.55;;;;;;;18.65;47.71;101186.16;4944131;28;20051;-56
2022/05/22 00:17:04;;;;;;;28.48;7.15;;;;;;;18.73;47.50;101185.78;4943644;28;20659;-57
2022/05/22 00:19:33;;;;;;;27.00;6.55;;;;;;;18.83;47.56;101181.56;4941391;29;20038;-57
2022/05/22 00:22:00;;;;;;;27.95;7.35;;;;;;;18.13;49.01;101193.84;4954260;28;20027;-57
2022/05/22 00:24:31;;;;;;;25.52;6.95;;;;;;;17.97;50.06;101191.94;4954050;28;20548;-57
2022/05/22 00:27:00;;;;;;;24.38;6.28;;;;;;;17.96;50.16;101183.00;4953803;28;20027;-57
2022/05/22 00:29:27;;;;;;;30.50;7.50;;;;;;;17.17;51.61;101190.25;4940184;28;20526;-56
2022/05/22 00:31:53;;;;;;;26.48;6.30;;;;;;;17.55;51.14;101190.44;4943762;28;20119;-52
2022/05/22 00:34:19;;;;;;;30.27;6.78;;;;;;;17.34;51.35;101188.41;4948695;28;20027;-56
2022/05/22 00:36:45;;;;;;;24.48;7.22;;;;;;;16.97;51.72;101185.25;4934333;29;20023;-56
2022/05/22 00:39:12;;;;;;;28.10;7.30;;;;;;;17.17;51.81;101195.66;4953597;28;20392;-56
2022/05/22 00:41:39;;;;;;;22.52;7.50;;;;;;;17.19;52.04;101188.13;4953253;28;20023;-53
2022/05/22 00:44:07;;;;;;;22.23;7.15;;;;;;;17.30;51.62;101195.38;4953021;28;20050;-54
2022/05/22 00:46:34;;;;;;;27.00;6.85;;;;;;;17.36;51.00;101206.03;4948901;28;20038;-55
2022/05/22 00:49:28;;;;;;;24.13;7.00;;;;;;;16.86;51.80;101203.97;4951709;28;20023;-54
2022/05/22 00:52:07;;;;;;;24.63;7.05;;;;;;;17.01;52.13;101202.66;4952950;28;20065;-56
2022/05/22 00:55:10;;;;;;;31.88;7.75;;;;;;;16.72;52.69;101205.31;4953013;28;20082;-55
2022/05/22 00:57:45;;;;;;;26.88;6.93;;;;;;;16.94;52.48;101207.38;4943338;28;20070;-55
2022/05/22 01:00:16;;;;;;;26.63;6.90;;;;;;;17.01;51.62;101205.34;4948113;28;20027;-56
2022/05/22 01:05:29;;;;;;;30.08;7.20;;;;;;;17.06;51.36;101205.47;4944799;28;20062;-52
2022/05/22 01:07:59;;;;;;;23.65;6.78;;;;;;;17.01;51.40;101203.47;4937862;28;20059;-51
2022/05/22 01:10:39;;;;;;;26.83;6.75;;;;;;;17.04;50.88;101202.16;4945733;28;20067;-51
2022/05/22 01:13:07;;;;;;;24.75;6.97;;;;;;;16.84;51.07;101199.88;4953292;28;20530;-51
2022/05/22 01:15:33;;;;;;;29.77;6.68;;;;;;;16.91;50.67;101207.84;4953538;28;20059;-52
2022/05/22 01:17:59;;;;;;;23.48;5.88;;;;;;;16.88;50.23;101203.75;4953928;28;20027;-49
2022/05/22 01:20:26;;;;;;;27.88;6.57;;;;;;;17.07;50.39;101198.97;4953401;28;20034;-49
2022/05/22 01:22:52;;;;;;;23.95;5.90;;;;;;;16.99;50.30;101205.59;4964793;28;20035;-49
2022/05/22 01:25:18;;;;;;;26.80;6.75;;;;;;;16.83;50.79;101199.06;4972562;28;20027;-50
2022/05/22 01:27:44;;;;;;;26.73;6.18;;;;;;;16.98;50.56;101198.53;4942008;28;20031;-52
2022/05/22 01:30:26;;;;;;;17.23;6.55;;;;;;;17.13;50.51;101189.91;4949886;28;20511;-50
2022/05/22 01:32:52;;;;;;;23.60;6.78;;;;;;;17.17;50.06;101196.47;4931983;28;20512;-48
2022/05/22 01:35:24;;;;;;;30.25;7.20;;;;;;;17.29;49.43;101186.44;4953304;28;20031;-50
2022/05/22 01:37:52;;;;;;;25.88;6.28;;;;;;;16.98;50.35;101198.53;4957642;28;20494;-48
2022/05/22 01:40:19;;;;;;;25.17;6.88;;;;;;;17.01;50.45;101192.66;4945913;28;20079;-52
2022/05/22 01:42:46;;;;;;;29.63;6.60;;;;;;;16.88;50.78;101201.88;4942330;28;20093;-49
2022/05/22 01:45:15;;;;;;;37.63;8.13;;;;;;;17.08;50.70;101201.44;4972087;28;20121;-51
2022/05/22 01:47:41;;;;;;;29.63;7.50;;;;;;;17.21;49.86;101207.63;4952727;29;20057;-48
2022/05/22 01:50:08;;;;;;;29.42;7.20;;;;;;;16.99;50.45;101202.91;4962335;28;20424;-52
2022/05/22 01:52:35;;;;;;;29.67;8.02;;;;;;;16.74;51.06;101197.75;4959029;28;20086;-48
2022/05/22 01:55:01;;;;;;;33.40;7.25;;;;;;;16.82;51.46;101199.28;4952690;28;20070;-51
2022/05/22 01:57:29;;;;;;;33.45;7.00;;;;;;;16.83;51.75;101212.56;4953243;28;20027;-52
2022/05/22 01:59:55;;;;;;;23.42;6.93;;;;;;;17.01;51.12;101208.88;4953010;28;20046;-51
2022/05/22 02:02:22;;;;;;;25.25;7.20;;;;;;;17.14;50.82;101205.06;4955404;28;20055;-51
2022/05/22 02:04:48;;;;;;;29.77;6.53;;;;;;;17.09;50.68;101211.19;4956571;28;20054;-54
2022/05/22 02:09:59;;;;;;;26.08;6.40;;;;;;;17.13;50.94;101212.34;4958458;28;20054;-52
2022/05/22 02:12:26;;;;;;;27.33;6.32;;;;;;;16.93;51.60;101216.53;4956851;28;20388;-53
2022/05/22 02:14:52;;;;;;;28.95;7.60;;;;;;;17.29;50.53;101223.47;4964382;28;20038;-52
2022/05/22 02:17:19;;;;;;;26.27;6.20;;;;;;;17.50;50.00;101211.16;4948611;28;20112;-52
2022/05/22 02:19:45;;;;;;;30.17;7.68;;;;;;;16.82;51.34;101218.19;4940524;29;20531;-52
2022/05/22 02:22:11;;;;;;;34.63;7.45;;;;;;;17.03;51.34;101219.44;4952729;28;20102;-52
2022/05/22 02:24:37;;;;;;;29.25;7.07;;;;;;;16.94;51.48;101234.41;4936944;29;20039;-53
2022/05/22 02:27:08;;;;;;;27.00;7.45;;;;;;;16.93;51.55;101217.34;4938645;28;20028;-52
2022/05/22 02:29:35;;;;;;;24.20;6.90;;;;;;;16.98;51.34;101230.97;4974930;28;20069;-52
2022/05/22 02:32:03;;;;;;;26.70;6.80;;;;;;;17.13;50.91;101223.19;4974888;28;20539;-52
2022/05/22 02:34:29;;;;;;;40.17;7.95;;;;;;;16.96;51.20;101233.09;4954866;28;20027;-52
2022/05/22 02:36:55;;;;;;;27.63;7.20;;;;;;;16.73;51.63;101236.69;4944691;28;20023;-51
2022/05/22 02:39:21;;;;;;;31.65;8.65;;;;;;;16.78;51.85;101241.38;4959468;28;20055;-52
2022/05/22 02:41:47;;;;;;;32.65;6.95;;;;;;;16.69;52.20;101245.47;4954256;28;20155;-52
2022/05/22 02:44:14;;;;;;;25.98;7.07;;;;;;;16.50;52.53;101248.28;4955270;28;20049;-52
2022/05/22 02:46:41;;;;;;;35.33;8.18;;;;;;;16.41;53.13;101256.97;4956297;28;20110;-52
2022/05/22 02:49:08;;;;;;;31.27;8.35;;;;;;;16.09;54.05;101255.41;4955161;28;20031;-52
2022/05/22 02:51:35;;;;;;;22.67;8.40;;;;;;;15.89;54.68;101256.78;4943829;28;20106;-51
2022/05/22 02:54:01;;;;;;;38.28;7.85;;;;;;;15.68;55.46;101258.13;4942165;28;20030;-53
2022/05/22 02:56:27;;;;;;;36.35;8.35;;;;;;;15.72;55.56;101257.44;4952638;28;20074;-52
2022/05/22 02:58:54;;;;;;;31.05;7.65;;;;;;;15.24;57.13;101268.22;4946892;28;20036;-52
2022/05/22 03:01:20;;;;;;;30.30;7.32;;;;;;;14.89;58.22;101259.94;4955335;28;20837;-52
2022/05/22 03:03:47;;;;;;;23.90;8.30;;;;;;;14.75;59.04;101262.75;4955192;28;20030;-52
2022/05/22 03:08:58;;;;;;;25.55;6.97;;;;;;;14.08;61.42;101275.13;4955501;29;20102;-52
2022/05/22 03:11:24;;;;;;;36.47;9.80;;;;;;;13.79;62.19;101275.75;4953074;28;20027;-51
2022/05/22 03:13:50;;;;;;;35.10;9.70;;;;;;;13.70;62.46;101277.88;4954137;28;20110;-52
2022/05/22 03:16:17;;;;;;;32.03;9.07;;;;;;;13.93;61.83;101272.75;4949775;28;20023;-52
2022/05/22 03:18:46;;;;;;;31.42;8.45;;;;;;;13.75;62.14;101275.34;4941598;29;20050;-52
2022/05/22 03:21:13;;;;;;;27.88;7.60;;;;;;;13.79;62.36;101292.72;4953522;29;20477;-53
2022/05/22 03:23:40;;;;;;;37.50;8.23;;;;;;;13.75;62.42;101288.81;4946641;28;20039;-53
2022/05/22 03:26:06;;;;;;;43.92;8.15;;;;;;;13.56;62.95;101284.38;4943470;29;20074;-53
2022/05/22 03:28:32;;;;;;;38.47;9.20;;;;;;;13.42;63.56;101287.09;4940548;28;20115;-54
2022/05/22 03:30:59;;;;;;;36.03;8.55;;;;;;;13.32;64.20;101289.41;4935586;29;20049;-52
2022/05/22 03:33:25;;;;;;;30.77;9.88;;;;;;;13.25;64.72;101293.19;4935778;29;20477;-53
2022/05/22 03:35:51;;;;;;;31.73;8.98;;;;;;;13.18;64.71;101296.69;4934922;29;20083;-53
2022/05/22 03:38:17;;;;;;;38.42;8.73;;;;;;;13.29;64.63;101303.31;4964942;28;20030;-53
2022/05/22 03:40:46;;;;;;;39.45;9.93;;;;;;;13.27;64.32;101305.41;4973712;28;20035;-53
2022/05/22 03:43:14;;;;;;;37.13;8.35;;;;;;;12.97;65.27;101310.38;4974103;28;20027;-53
2022/05/22 03:45:42;;;;;;;30.88;8.45;;;;;;;12.85;66.00;101302.16;4961063;28;20098;-52
2022/05/22 03:48:09;;;;;;;25.67;7.90;;;;;;;13.01;65.50;101305.44;4954234;28;20042;-52
2022/05/22 03:50:35;;;;;;;35.42;10.27;;;;;;;12.94;65.56;101308.16;4954225;28;20042;-52
2022/05/22 03:53:02;;;;;;;38.28;9.32;;;;;;;12.98;65.51;101311.22;4954494;28;20031;-52
2022/05/22 03:55:28;;;;;;;30.65;8.23;;;;;;;12.91;65.81;101312.06;4954192;28;20439;-52
2022/05/22 03:57:54;;;;;;;32.50;9.00;;;;;;;12.80;66.19;101320.75;4954589;28;20031;-52
2022/05/22 04:00:23;;;;;;;37.50;9.20;;;;;;;12.82;66.15;101324.06;4954069;28;20035;-52
2022/05/22 04:02:50;;;;;;;40.65;8.93;;;;;;;12.83;66.22;101320.34;4953780;28;20019;-54
2022/05/22 04:05:17;;;;;;;35.90;9.43;;;;;;;12.89;65.61;101329.44;4953806;28;20484;-52
2022/05/22 04:07:46;;;;;;;34.38;9.13;;;;;;;12.59;67.35;101329.03;4954348;28;20035;-53
2022/05/22 04:10:14;;;;;;;46.65;9.52;;;;;;;12.65;67.28;101328.19;4953693;28;20027;-54
2022/05/22 04:12:43;;;;;;;36.13;8.93;;;;;;;12.59;67.56;101329.84;4936914;28;20583;-52
2022/05/22 04:15:13;;;;;;;37.80;9.10;;;;;;;12.77;66.87;101333.75;4969639;28;20073;-52
2022/05/22 04:17:40;;;;;;;39.08;8.63;;;;;;;12.54;67.62;101343.06;4973918;28;20479;-52
2022/05/22 04:20:07;;;;;;;36.25;8.88;;;;;;;12.48;67.83;101343.09;4957170;28;20031;-53
2022/05/22 04:25:10;;;;;;;34.88;8.15;;;;;;;12.58;67.57;101349.69;4953884;28;20042;-51
2022/05/22 04:25:21;;;;;;;27.20;7.68;;;;;;;12.65;67.08;101355.06;4952871;28;20043;-52
2022/05/22 04:27:47;;;;;;;35.97;8.73;;;;;;;12.61;67.41;101353.84;4954234;28;20381;-52
2022/05/22 04:30:17;;;;;;;31.30;7.90;;;;;;;12.42;68.17;101350.94;4953766;28;20035;-53
2022/05/22 04:32:46;;;;;;;37.53;8.15;;;;;;;12.49;67.92;101358.97;4953837;28;20039;-52
2022/05/22 04:35:12;;;;;;;31.75;8.13;;;;;;;12.54;67.77;101358.38;4953414;28;20019;-53
2022/05/22 04:37:39;;;;;;;34.00;8.32;;;;;;;12.60;67.52;101366.44;4953523;28;20029;-52
2022/05/22 04:40:07;;;;;;;34.78;9.07;;;;;;;12.57;67.62;101371.41;4953413;28;20067;-52
2022/05/22 04:42:35;;;;;;;28.65;8.40;;;;;;;12.45;68.14;101375.72;4953530;28;20039;-52
2022/05/22 04:45:03;;;;;;;39.00;8.23;;;;;;;12.38;68.40;101378.38;4953157;28;20355;-50
2022/05/22 04:47:30;;;;;;;44.58;9.65;;;;;;;12.13;69.16;101368.25;4953421;28;20125;-52
2022/05/22 04:49:56;;;;;;;37.25;9.98;;;;;;;12.31;68.76;101374.88;4953325;28;20490;-52
2022/05/22 04:52:22;;;;;;;37.67;9.32;;;;;;;12.12;69.42;101380.00;4953387;28;20039;-52
2022/05/22 04:54:51;;;;;;;40.70;8.50;;;;;;;12.19;69.02;101388.06;4952177;28;20404;-53
2022/05/22 04:57:18;;;;;;;35.75;8.40;;;;;;;12.11;69.45;101385.59;4953852;28;20035;-51
2022/05/22 04:59:44;;;;;;;43.55;8.50;;;;;;;12.26;68.82;101388.91;4953498;28;20047;-51
2022/05/22 05:02:10;;;;;;;41.60;8.88;;;;;;;12.31;68.45;101386.44;4953209;28;20106;-50
2022/05/22 05:04:36;;;;;;;39.13;9.38;;;;;;;12.37;68.40;101388.28;4953369;28;20027;-52
2022/05/22 05:07:07;;;;;;;38.45;9.25;;;;;;;12.43;67.71;101390.16;4953558;28;20031;-52
2022/05/22 05:09:35;;;;;;;34.72;7.68;;;;;;;12.48;67.32;101391.41;4952921;28;20043;-52
2022/05/22 05:12:03;;;;;;;40.58;8.50;;;;;;;12.55;67.21;101400.31;4941332;28;20032;-50
2022/05/22 05:14:29;;;;;;;40.20;8.07;;;;;;;12.56;66.65;101396.59;4958456;28;20110;-53
2022/05/22 05:16:55;;;;;;;29.45;7.68;;;;;;;12.40;67.18;101398.63;4972274;28;20019;-52
2022/05/22 05:19:22;;;;;;;34.00;7.97;;;;;;;12.38;66.97;101398.03;4972579;28;20033;-51
2022/05/22 05:21:48;;;;;;;40.40;9.57;;;;;;;12.43;67.00;101394.69;4972435;28;20389;-51
2022/05/22 05:24:14;;;;;;;38.45;8.15;;;;;;;12.48;66.44;101396.78;4972093;28;20027;-51
2022/05/22 05:26:40;;;;;;;33.33;8.10;;;;;;;12.46;66.51;101402.38;4968125;28;20034;-52
2022/05/22 05:29:07;;;;;;;35.70;8.40;;;;;;;12.48;66.31;101402.97;4952986;28;20019;-52
2022/05/22 05:31:33;;;;;;;35.80;8.30;;;;;;;12.56;65.75;101400.09;4952813;28;20038;-52
2022/05/22 05:33:59;;;;;;;39.30;9.75;;;;;;;12.62;65.93;101399.28;4952811;28;20033;-53
2022/05/22 05:36:26;;;;;;;35.60;8.73;;;;;;;12.76;65.49;101400.09;4953974;28;20027;-52
2022/05/22 05:38:53;;;;;;;32.25;7.65;;;;;;;12.54;66.62;101396.78;4956669;28;20031;-51
2022/05/22 05:41:19;;;;;;;37.90;8.27;;;;;;;12.71;65.99;101407.94;4943958;28;20027;-52
2022/05/22 05:43:45;;;;;;;40.05;8.15;;;;;;;12.75;66.02;101406.50;4955112;28;20031;-52
2022/05/22 05:46:11;;;;;;;35.17;9.35;;;;;;;12.71;66.09;101410.63;4956658;28;20058;-52
2022/05/22 05:48:37;;;;;;;30.00;7.75;;;;;;;12.78;65.89;101413.34;4956286;28;20051;-53
2022/05/22 05:51:04;;;;;;;39.47;8.48;;;;;;;12.75;66.08;101414.56;4956420;28;20079;-51
2022/05/22 05:53:30;;;;;;;44.15;7.45;;;;;;;12.81;65.61;101411.06;4956378;28;20023;-52
2022/05/22 05:55:56;;;;;;;34.35;8.93;;;;;;;12.83;65.56;101410.88;4956548;28;20023;-52
2022/05/22 05:58:22;;;;;;;33.15;8.55;;;;;;;12.80;65.64;101411.28;4956435;28;20105;-52
2022/05/22 06:00:48;;;;;;;38.90;8.75;;;;;;;12.76;65.78;101418.06;4955730;28;20389;-52
2022/05/22 06:03:14;;;;;;;31.15;8.82;;;;;;;12.69;65.95;101410.84;4955934;28;20016;-53
2022/05/22 06:05:41;;;;;;;35.58;8.95;;;;;;;12.62;66.00;101407.34;4956366;28;20028;-51
2022/05/22 06:08:07;;;;;;;30.85;7.32;;;;;;;12.63;65.71;101400.94;4956085;28;20151;-52
2022/05/22 06:10:36;;;;;;;35.80;7.93;;;;;;;12.65;65.64;101409.59;4956394;28;20035;-50
2022/05/22 06:13:02;;;;;;;36.05;9.02;;;;;;;12.67;65.34;101407.56;4956178;28;20027;-52
2022/05/22 06:15:28;;;;;;;33.60;8.05;;;;;;;12.41;66.22;101402.97;4955626;28;20030;-52
2022/05/22 06:17:56;;;;;;;31.80;7.68;;;;;;;12.69;65.78;101408.16;4955626;28;20027;-53
2022/05/22 06:20:23;;;;;;;37.97;9.15;;;;;;;12.67;65.79;101406.72;4956123;28;20031;-51
2022/05/22 06:22:49;;;;;;;33.58;8.75;;;;;;;12.63;66.29;101410.84;4956027;28;20035;-52
2022/05/22 06:25:17;;;;;;;37.95;8.20;;;;;;;12.76;66.17;101415.41;4955520;28;20031;-52
2022/05/22 06:27:44;;;;;;;34.05;8.25;;;;;;;12.77;66.22;101417.91;4953655;28;20051;-50
2022/05/22 06:30:13;;;;;;;34.75;8.50;;;;;;;12.65;66.50;101408.78;4955441;28;20039;-52
2022/05/22 06:32:43;;;;;;;32.78;8.98;;;;;;;12.68;66.89;101416.44;4954540;28;20035;-52
2022/05/22 06:35:11;;;;;;;27.92;7.82;;;;;;;12.64;67.06;101412.50;4955502;28;20038;-52
2022/05/22 06:37:38;;;;;;;33.28;8.77;;;;;;;12.58;67.49;101414.16;4939407;28;20024;-52
2022/05/22 06:40:06;;;;;;;32.50;9.63;;;;;;;12.57;67.70;101409.81;4955464;28;20031;-52
2022/05/22 06:42:36;;;;;;;46.42;9.85;;;;;;;12.72;67.08;101408.81;4955993;28;20028;-52
2022/05/22 06:45:13;;;;;;;32.97;8.25;;;;;;;12.45;68.33;101399.88;4954912;29;20420;-52
2022/05/22 06:47:41;;;;;;;32.38;8.60;;;;;;;12.47;68.38;101400.50;4954488;28;20562;-52
2022/05/22 06:50:12;;;;;;;40.80;8.48;;;;;;;12.54;67.98;101401.31;4954841;28;20067;-51
2022/05/22 06:52:39;;;;;;;38.33;7.47;;;;;;;12.59;67.25;101396.16;4955393;28;20035;-52
2022/05/22 06:55:06;;;;;;;49.50;8.77;;;;;;;12.56;67.84;101399.28;4954123;28;20058;-52
2022/05/22 06:57:32;;;;;;;39.10;8.93;;;;;;;12.52;67.72;101393.47;4955685;28;20039;-53
2022/05/22 06:59:59;;;;;;;39.70;9.25;;;;;;;12.60;67.92;101392.44;4954601;28;20037;-53
2022/05/22 07:02:30;;;;;;;41.85;8.95;;;;;;;12.62;67.79;101385.84;4955601;28;20661;-52
2022/05/22 07:04:59;;;;;;;39.75;8.90;;;;;;;12.61;68.10;101383.38;4953579;28;20054;-53
2022/05/22 07:07:26;;;;;;;29.88;8.32;;;;;;;12.72;68.12;101393.50;4955687;28;20041;-52
2022/05/22 07:09:53;;;;;;;37.55;9.23;;;;;;;12.66;68.49;101389.78;4953477;28;20031;-52
2022/05/22 07:12:19;;;;;;;42.08;9.73;;;;;;;12.38;70.24;101397.19;4940732;28;20058;-52
2022/05/22 07:14:48;;;;;;;38.90;9.27;;;;;;;12.58;68.91;101398.03;4948670;28;20058;-52
2022/05/22 07:17:16;;;;;;;28.83;8.57;;;;;;;12.60;68.14;101397.81;4955217;28;20035;-51
2022/05/22 07:19:45;;;;;;;36.10;8.15;;;;;;;12.43;68.00;101392.84;4953977;28;20404;-52
2022/05/22 07:22:11;;;;;;;29.15;8.10;;;;;;;12.51;67.45;101397.22;4955094;28;20031;-51
2022/05/22 07:24:38;;;;;;;36.17;8.30;;;;;;;12.53;67.07;101386.25;4952925;28;20499;-51
2022/05/22 07:27:05;;;;;;;36.45;7.63;;;;;;;12.60;67.02;101395.13;4954415;28;20063;-52
2022/05/22 07:29:31;;;;;;;27.00;8.27;;;;;;;12.43;66.97;101394.69;4953144;28;20069;-52
2022/05/22 07:31:58;;;;;;;30.40;8.02;;;;;;;12.54;67.07;101396.78;4954824;28;20027;-51
2022/05/22 07:34:25;;;;;;;37.58;8.00;;;;;;;12.66;65.99;101405.09;4952900;28;20039;-51
2022/05/22 07:36:57;;;;;;;40.53;8.38;;;;;;;12.61;67.18;101399.50;4954596;28;20059;-52
2022/05/22 07:39:24;;;;;;;34.67;8.60;;;;;;;12.72;68.78;101396.19;4952753;28;20043;-53
2022/05/22 07:41:50;;;;;;;43.92;9.45;;;;;;;12.67;69.20;101390.63;4954488;28;20024;-52
2022/05/22 07:44:16;;;;;;;37.38;8.95;;;;;;;12.52;69.71;101396.16;4953086;28;20479;-52
2022/05/22 07:46:43;;;;;;;44.17;9.75;;;;;;;12.39;70.15;101394.31;4954622;28;20403;-53
2022/05/22 07:50:16;;;;;;;43.25;8.57;;;;;;;12.61;69.60;101399.50;4952636;28;20023;-52
2022/05/22 07:51:55;;;;;;;32.22;8.52;;;;;;;12.42;69.57;101387.69;4935426;29;20032;-52
2022/05/22 07:54:22;;;;;;;36.85;7.97;;;;;;;12.52;69.69;101388.13;4945982;29;20082;-52
2022/05/22 07:56:48;;;;;;;41.45;9.10;;;;;;;12.52;69.48;101388.13;4954064;28;20035;-53
2022/05/22 07:59:14;;;;;;;31.17;9.98;;;;;;;12.51;69.57;101385.66;4952823;28;20035;-53
2022/05/22 08:01:40;;;;;;;46.97;10.10;;;;;;;12.47;69.91;101381.72;4954277;28;20026;-51
2022/05/22 08:04:07;;;;;;;36.67;9.10;;;;;;;12.39;69.93;101383.56;4952862;28;20089;-52
2022/05/22 08:06:34;;;;;;;40.67;9.75;;;;;;;12.29;70.62;101375.09;4954177;28;20035;-52
2022/05/22 08:09:00;;;;;;;34.30;8.40;;;;;;;12.30;70.27;101379.41;4952692;28;20062;-53
2022/05/22 08:11:26;;;;;;;43.60;9.70;;;;;;;12.36;70.51;101375.91;4946794;28;20357;-51
2022/05/22 08:13:52;;;;;;;36.53;9.68;;;;;;;12.39;70.19;101367.47;4939891;28;20518;-52
2022/05/22 08:16:18;;;;;;;33.97;8.20;;;;;;;12.38;69.65;101381.91;4954291;28;20028;-52
2022/05/22 08:18:45;;;;;;;32.67;8.95;;;;;;;12.09;71.06;101371.53;4950784;28;20480;-52
2022/05/22 08:21:11;;;;;;;29.10;9.00;;;;;;;12.09;71.06;101363.47;4943355;28;20154;-52
2022/05/22 08:23:37;;;;;;;35.50;8.80;;;;;;;12.25;70.64;101360.41;4933666;29;20564;-52
2022/05/22 08:26:03;;;;;;;41.03;9.10;;;;;;;12.09;71.23;101360.78;4932877;29;20035;-52
2022/05/22 08:28:30;;;;;;;31.33;8.95;;;;;;;12.05;71.26;101367.63;4932729;29;20039;-52
2022/05/22 08:30:56;;;;;;;38.72;9.10;;;;;;;12.17;70.65;101360.63;4934397;29;20043;-52
2022/05/22 08:33:22;;;;;;;34.40;8.60;;;;;;;12.14;70.97;101363.69;4932111;29;20055;-51
2022/05/22 08:35:48;;;;;;;38.83;9.88;;;;;;;12.09;70.71;101372.34;4934269;29;20032;-51
2022/05/22 08:38:14;;;;;;;38.28;8.85;;;;;;;12.11;70.89;101377.53;4934128;29;20385;-52
2022/05/22 08:40:48;;;;;;;42.97;9.45;;;;;;;12.10;70.87;101381.22;4933841;29;20225;-52
2022/05/22 08:43:36;;;;;;;38.47;9.30;;;;;;;12.19;70.21;101381.88;4932867;29;20083;-52
2022/05/22 08:46:28;;;;;;;28.75;8.05;;;;;;;12.18;70.33;101389.09;4933812;29;20079;-52
2022/05/22 08:48:57;;;;;;;31.98;8.60;;;;;;;12.23;69.60;101377.75;4931482;28;20477;-51
2022/05/22 08:51:37;;;;;;;45.55;9.43;;;;;;;12.34;69.71;101369.09;4933799;29;20130;-52
2022/05/22 08:54:12;;;;;;;43.67;9.35;;;;;;;11.87;71.36;101360.94;4933646;29;20393;-52
2022/05/22 08:59:47;;;;;;;39.33;8.68;;;;;;;11.96;71.15;101376.88;4930154;29;20278;-53
2022/05/22 09:02:16;;;;;;;37.70;9.23;;;;;;;11.75;71.95;101381.28;4929289;29;21533;-54
2022/05/22 09:05:02;;;;;;;40.38;9.45;;;;;;;11.65;72.35;101391.56;4930524;29;20062;-52
2022/05/22 09:07:38;;;;;;;40.55;10.65;;;;;;;11.82;72.10;101384.03;4934869;28;20481;-53
2022/05/22 09:10:19;;;;;;;37.40;9.05;;;;;;;11.82;71.38;101386.72;4932022;28;20038;-52
2022/05/22 09:12:58;;;;;;;37.92;9.50;;;;;;;11.90;70.94;101394.59;4938276;29;20059;-51
2022/05/22 09:15:49;;;;;;;37.95;8.02;;;;;;;11.79;71.62;101398.66;4954052;28;20452;-52
2022/05/22 09:18:36;;;;;;;34.72;9.20;;;;;;;11.86;71.03;101396.03;4946681;28;20032;-52
2022/05/22 09:21:18;;;;;;;41.40;9.35;;;;;;;11.84;71.33;101387.34;4947183;28;20039;-53
2022/05/22 09:23:47;;;;;;;37.53;8.77;;;;;;;11.80;71.09;101389.56;4943672;28;20539;-53
2022/05/22 09:26:40;;;;;;;34.60;9.27;;;;;;;11.80;71.24;101388.75;4937656;28;20043;-52
2022/05/22 09:29:45;;;;;;;41.33;9.27;;;;;;;11.84;70.95;101385.50;4949772;29;20027;-51
2022/05/22 09:32:40;;;;;;;32.15;8.95;;;;;;;11.70;71.71;101381.06;4938815;28;20035;-51
2022/05/22 09:35:18;;;;;;;43.85;8.98;;;;;;;11.77;70.74;101384.63;4954891;29;20180;-52
2022/05/22 09:38:02;;;;;;;36.28;10.02;;;;;;;11.73;71.67;101378.00;4946894;28;20063;-50
2022/05/22 09:40:43;;;;;;;39.85;9.93;;;;;;;11.81;71.03;101369.78;4945730;29;20066;-51
2022/05/22 09:43:46;;;;;;;41.67;9.60;;;;;;;11.87;70.90;101374.34;4954968;28;20069;-52
2022/05/22 09:46:30;;;;;;;36.13;9.90;;;;;;;11.73;71.18;101380.69;4937774;29;20051;-50
2022/05/22 09:49:23;;;;;;;37.13;9.20;;;;;;;11.66;71.64;101387.03;4953534;29;20034;-52
2022/05/22 09:52:20;;;;;;;32.08;9.57;;;;;;;11.57;72.16;101370.28;4954929;28;20034;-52
2022/05/22 09:55:00;;;;;;;46.13;9.70;;;;;;;11.46;72.55;101377.03;4956225;28;20551;-52
2022/05/22 09:57:32;;;;;;;39.75;9.10;;;;;;;11.53;72.15;101367.16;4942229;28;20487;-52
2022/05/22 10:00:16;;;;;;;38.25;9.20;;;;;;;11.70;71.79;101359.59;4936093;28;20032;-52
2022/05/22 10:03:00;;;;;;;42.67;10.27;;;;;;;11.60;72.45;101356.47;4941910;29;20369;-52
2022/05/22 10:06:03;;;;;;;28.38;8.32;;;;;;;11.62;72.41;101349.06;4941367;28;20031;-51
2022/05/22 10:08:35;;;;;;;45.15;9.27;;;;;;;11.56;72.77;101352.56;4935681;28;20469;-50
2022/05/22 10:11:23;;;;;;;45.20;10.75;;;;;;;11.69;72.03;101351.78;4936835;29;20043;-52
2022/05/22 10:14:10;;;;;;;31.40;8.02;;;;;;;11.59;72.21;101361.00;4935274;29;20097;-52
2022/05/22 10:17:12;;;;;;;39.58;9.13;;;;;;;11.59;72.14;101366.38;4943884;29;20035;-52
2022/05/22 10:19:47;;;;;;;40.20;8.70;;;;;;;11.75;71.82;101364.38;4950100;28;20155;-52
2022/05/22 10:22:47;;;;;;;34.00;8.85;;;;;;;11.57;72.65;101367.63;4942664;28;20027;-50
2022/05/22 10:25:30;;;;;;;37.80;9.40;;;;;;;11.59;72.45;101376.28;4947498;28;20037;-51
2022/05/22 10:28:02;;;;;;;36.28;9.23;;;;;;;11.61;72.00;101376.91;4954448;28;20038;-51
2022/05/22 10:30:32;;;;;;;47.60;9.90;;;;;;;11.62;72.17;101376.72;4955388;28;20031;-51
2022/05/22 10:33:05;;;;;;;38.03;9.20;;;;;;;11.78;71.70;101361.31;4948945;28;20027;-51
2022/05/22 10:35:40;;;;;;;33.50;8.52;;;;;;;11.78;71.35;101380.09;4940932;28;20035;-51
2022/05/22 10:38:18;;;;;;;35.33;8.90;;;;;;;11.69;72.01;101381.28;4970214;28;20041;-52
2022/05/22 10:43:38;;;;;;;33.95;9.40;;;;;;;11.63;71.98;101385.59;4954296;29;20037;-53
2022/05/22 10:46:04;;;;;;;35.70;9.18;;;;;;;11.59;72.21;101376.28;4953462;28;20134;-51
2022/05/22 10:48:33;;;;;;;38.72;9.57;;;;;;;11.60;72.12;101372.56;4955462;28;20035;-50
2022/05/22 10:51:12;;;;;;;40.35;8.77;;;;;;;11.63;72.77;101385.59;4955290;28;20110;-53
2022/05/22 10:53:49;;;;;;;34.15;8.60;;;;;;;11.60;72.57;101384.13;4955576;28;20476;-53
2022/05/22 10:56:18;;;;;;;38.15;9.60;;;;;;;11.79;71.89;101387.91;4955564;28;20035;-52
2022/05/22 10:59:07;;;;;;;40.15;8.93;;;;;;;11.73;71.89;101395.94;4955624;28;20052;-51
2022/05/22 11:04:13;;;;;;;42.60;8.25;;;;;;;11.48;72.71;101384.88;5621872;23;20050;-57
2022/05/22 11:07:00;;;;;;;41.85;8.63;;;;;;;11.24;73.87;101392.38;5010089;28;20061;-56
2022/05/22 11:09:32;;;;;;;37.08;8.38;;;;;;;11.26;73.43;101386.81;5011180;28;20026;-56
2022/05/22 11:12:07;;;;;;;35.67;9.07;;;;;;;11.46;72.41;101381.59;5013189;28;20421;-56
2022/05/22 11:14:35;;;;;;;39.40;9.45;;;;;;;11.59;72.46;101377.09;5011628;28;20014;-55
2022/05/22 11:17:22;;;;;;;38.95;10.32;;;;;;;11.54;72.63;101379.53;4993200;28;20038;-57
2022/05/22 11:19:54;;;;;;;39.97;8.50;;;;;;;11.46;72.69;101387.78;5000724;28;20025;-57
2022/05/22 11:22:32;;;;;;;29.42;8.25;;;;;;;11.54;72.59;101381.41;5012465;28;20493;-57
2022/05/22 11:25:13;;;;;;;45.60;8.98;;;;;;;11.60;72.25;101386.81;5011501;28;20068;-57
2022/05/22 11:28:14;;;;;;;38.25;9.35;;;;;;;11.60;71.95;101391.31;4995022;28;20035;-56
2022/05/22 11:31:05;;;;;;;39.78;8.75;;;;;;;11.69;71.46;101395.50;5007102;28;20042;-57
2022/05/22 11:34:04;;;;;;;48.33;10.75;;;;;;;11.26;73.13;101389.50;4993511;28;20031;-57
2022/05/22 11:36:42;;;;;;;33.70;9.05;;;;;;;11.39;72.24;101383.41;5012762;28;20532;-56
2022/05/22 11:39:16;;;;;;;33.75;8.77;;;;;;;11.51;71.56;101387.19;4997381;28;20034;-57
2022/05/22 11:42:09;;;;;;;36.22;8.80;;;;;;;11.49;71.82;101386.53;5005708;28;20045;-58
2022/05/22 11:45:19;;;;;;;43.53;10.82;;;;;;;11.43;71.94;101387.31;5012574;28;20066;-57
2022/05/22 11:48:05;;;;;;;41.25;9.75;;;;;;;11.48;71.93;101392.91;5012979;28;20053;-57
2022/05/22 11:50:54;;;;;;;34.88;8.55;;;;;;;11.35;71.99;101393.69;5013122;28;20030;-57
2022/05/22 11:53:41;;;;;;;42.15;8.95;;;;;;;11.44;71.69;101389.84;5012781;28;20109;-57